createdAt,value
2023-02-23T05:10:32.298Z,92.10
2023-02-23T07:22:18.857Z,93.10
2023-02-23T08:45:57.090Z,99.40
2023-02-23T08:48:29.441Z,99.90
2023-02-23T08:51:00.622Z,99.90
2023-02-23T08:53:32.876Z,99.20
2023-02-23T08:56:04.805Z,99.90
2023-02-23T08:58:34.275Z,99.40
2023-02-23T09:01:02.748Z,98.00
2023-02-23T09:03:38.298Z,97.80
2023-02-23T09:06:10.665Z,97.10
2023-02-23T09:08:39.553Z,96.90
2023-02-23T10:30:23.790Z,94.20
2023-02-23T10:32:56.820Z,94.10
2023-02-23T10:35:25.433Z,94.00
2023-02-23T10:37:54.820Z,93.90
2023-02-23T10:40:25.279Z,94.00
2023-02-23T10:42:55.254Z,94.10
2023-02-23T10:45:28.680Z,94.00
2023-02-23T10:48:00.155Z,93.90
2023-02-23T10:50:30.036Z,93.80
2023-02-23T10:53:01.954Z,94.00
2023-02-23T10:55:31.352Z,93.80
2023-02-23T10:58:17.131Z,93.80
2023-02-23T11:01:02.641Z,93.80
2023-02-23T11:03:35.002Z,93.80
2023-02-23T11:06:03.062Z,93.90
2023-02-23T11:08:34.128Z,94.40
2023-02-23T11:11:25.470Z,94.00
2023-02-23T11:13:56.635Z,94.10
2023-02-23T11:16:30.116Z,94.20
2023-02-23T11:19:00.826Z,94.10
2023-02-23T11:21:33.648Z,94.00
2023-02-23T11:24:14.126Z,93.90
2023-02-23T11:26:44.517Z,94.00
2023-02-23T11:29:17.804Z,93.90
2023-02-23T11:31:52.751Z,93.90
2023-02-23T11:34:30.314Z,94.20
2023-02-23T11:37:04.234Z,94.00
2023-02-23T11:39:32.422Z,94.20
2023-02-23T11:42:15.868Z,94.10
2023-02-23T11:44:45.157Z,94.00
2023-02-23T11:47:20.644Z,93.90
2023-02-23T11:49:50.733Z,93.80
2023-02-23T11:52:22.092Z,94.10
2023-02-23T11:54:58.071Z,94.20
2023-02-23T11:57:30.423Z,94.10
2023-02-23T12:00:00.915Z,93.80
2023-02-23T12:02:32.090Z,93.80
2023-02-23T12:05:15.254Z,93.70
2023-02-23T12:07:53.102Z,93.60
2023-02-23T12:10:25.601Z,93.70
2023-02-23T12:13:04.563Z,93.60
2023-02-23T12:15:43.463Z,93.60
2023-02-23T12:18:24.214Z,93.60
2023-02-23T12:20:55.788Z,93.60
2023-02-23T12:23:27.822Z,93.60
2023-02-23T12:26:00.609Z,93.60
2023-02-23T12:28:34.944Z,93.70
2023-02-23T12:39:01.045Z,94.00
2023-02-23T12:41:37.918Z,94.10
2023-02-23T12:44:15.426Z,94.20
2023-02-23T12:46:48.904Z,94.30
2023-02-23T12:49:25.341Z,94.40
2023-02-23T12:51:56.327Z,94.70
2023-02-23T12:54:26.904Z,94.50
2023-02-23T12:57:09.721Z,94.40
2023-02-23T13:00:24.851Z,94.20
2023-02-23T13:03:12.349Z,94.40
2023-02-23T13:05:41.979Z,94.60
2023-02-23T13:08:22.104Z,94.60
2023-02-23T13:11:03.108Z,94.50
2023-02-23T13:13:40.793Z,94.50
2023-02-23T13:16:17.665Z,94.60
2023-02-23T13:18:51.317Z,94.40
2023-02-23T13:21:25.417Z,94.60
2023-02-23T13:24:02.539Z,94.50
2023-02-23T13:26:41.699Z,94.30
2023-02-23T13:29:26.035Z,94.40
2023-02-23T13:31:54.684Z,94.30
2023-02-23T13:34:27.764Z,94.20
2023-02-23T13:36:57.688Z,94.60
2023-02-23T13:39:52.618Z,94.40
2023-02-23T13:42:36.970Z,94.20
2023-02-23T13:45:33.600Z,93.90
2023-02-23T13:48:08.016Z,93.50
2023-02-23T13:50:45.397Z,94.10
2023-02-23T13:53:33.337Z,94.10
2023-02-23T13:56:04.143Z,94.10
2023-02-23T13:58:34.559Z,94.10
2023-02-23T14:01:12.177Z,94.00
2023-02-23T14:03:55.546Z,94.10
2023-02-23T14:06:26.991Z,93.80
2023-02-23T14:09:00.969Z,93.90
2023-02-23T14:11:57.157Z,94.00
2023-02-23T14:14:44.908Z,93.70
2023-02-23T14:17:51.034Z,93.60
2023-02-23T14:20:40.388Z,93.90
2023-02-23T14:23:49.906Z,93.80
2023-02-23T14:26:37.605Z,93.80
2023-02-23T14:29:28.083Z,94.00
2023-02-23T14:35:54.936Z,94.30
2023-02-23T14:57:54.290Z,94.70
2023-02-23T15:00:24.995Z,93.80
2023-02-23T15:02:58.946Z,93.90
2023-02-23T15:05:29.606Z,93.80
2023-02-23T15:08:02.696Z,94.10
2023-02-23T15:10:35.190Z,93.90
2023-02-23T15:44:44.834Z,93.10
2023-02-23T15:47:23.078Z,93.20
2023-02-23T15:49:51.369Z,93.10
2023-02-23T15:52:27.897Z,93.00
2023-02-23T15:55:00.159Z,93.00
2023-02-23T15:57:31.843Z,92.90
2023-02-23T16:00:10.669Z,92.90
2023-02-23T16:02:45.976Z,92.90
2023-02-23T16:05:21.192Z,92.90
2023-02-23T16:07:49.346Z,93.00
2023-02-23T16:10:22.757Z,92.90
2023-02-23T16:12:53.815Z,93.30
2023-02-23T16:15:29.349Z,93.10
2023-02-23T16:18:00.324Z,93.00
2023-02-23T16:20:36.872Z,93.40
2023-02-23T16:23:06.047Z,93.10
2023-02-23T16:25:37.120Z,93.70
2023-02-23T16:28:09.465Z,94.90
2023-02-23T16:30:58.538Z,94.00
2023-02-23T16:45:35.141Z,94.30
2023-02-23T16:48:21.147Z,95.70
2023-02-23T16:53:53.556Z,96.10
2023-02-23T16:56:23.284Z,96.60
2023-02-23T17:25:47.785Z,97.40
2023-02-23T17:28:17.837Z,97.20
2023-02-23T17:30:47.454Z,97.20
2023-02-23T17:33:15.935Z,97.40
2023-02-23T17:35:44.433Z,97.70
2023-02-23T17:38:27.511Z,97.70
2023-02-23T17:45:58.994Z,96.20
2023-02-23T17:49:32.130Z,97.30
2023-02-23T17:52:25.742Z,95.80
2023-02-23T17:55:33.954Z,95.90
2023-02-23T18:26:47.928Z,97.70
2023-02-23T18:29:18.854Z,97.40
2023-02-23T18:32:19.140Z,97.30
2023-02-23T21:32:56.735Z,99.90
